createdAt,value
2023-05-06T00:01:24.461Z,100912.06
2023-05-06T00:03:51.631Z,100917.16
2023-05-06T00:06:18.445Z,100922.41
2023-05-06T00:08:46.061Z,100929.06
2023-05-06T00:11:13.829Z,100932.13
2023-05-06T00:13:41.249Z,100924.47
2023-05-06T00:16:08.212Z,100937.22
2023-05-06T00:18:34.930Z,100938.41
2023-05-06T00:21:01.595Z,100946.81
2023-05-06T00:23:28.269Z,100951.16
2023-05-06T00:25:55.215Z,100962.63
2023-05-06T00:28:21.876Z,100977.69
2023-05-06T00:30:48.731Z,100987.22
2023-05-06T00:33:15.384Z,100998.84
2023-05-06T00:35:44.281Z,101015.91
2023-05-06T00:38:13.603Z,101019.81
2023-05-06T00:40:42.278Z,101026.63
2023-05-06T00:43:09.123Z,101023.69
2023-05-06T00:45:36.828Z,101024.38
2023-05-06T00:48:04.835Z,101036.22
2023-05-06T00:50:33.392Z,101039.25
2023-05-06T00:53:00.639Z,101029.47
2023-05-06T00:55:27.549Z,101036.13
2023-05-06T00:57:54.580Z,101036.25
2023-05-06T01:00:21.731Z,101029.22
2023-05-06T01:02:49.292Z,101035.41
2023-05-06T01:05:17.475Z,101039.75
2023-05-06T01:08:08.646Z,100973.28
2023-05-06T01:10:55.831Z,100938.41
2023-05-06T01:13:50.537Z,100936.47
2023-05-06T01:16:20.425Z,100951.09
2023-05-06T01:18:49.317Z,100970.00
2023-05-06T01:21:17.749Z,100900.22
2023-05-06T01:23:52.025Z,100928.81
2023-05-06T01:26:18.726Z,100942.59
2023-05-06T01:28:45.433Z,100951.00
2023-05-06T01:31:13.302Z,101000.31
2023-05-06T01:33:54.434Z,101054.03
2023-05-06T01:36:32.839Z,101053.97
2023-05-06T01:39:18.480Z,101059.75
2023-05-06T01:41:48.345Z,101078.19
2023-05-06T01:44:15.458Z,101084.63
2023-05-06T01:46:43.696Z,101092.69
2023-05-06T01:49:11.608Z,101097.75
2023-05-06T01:51:38.684Z,101103.16
2023-05-06T01:54:05.476Z,101116.63
2023-05-06T01:56:32.253Z,101116.16
2023-05-06T01:58:59.802Z,101127.31
2023-05-06T02:01:26.867Z,101131.66
2023-05-06T02:03:53.758Z,101339.47
2023-05-06T02:06:20.694Z,101356.00
2023-05-06T02:08:47.490Z,101371.22
2023-05-06T02:11:19.068Z,101376.88
2023-05-06T02:13:47.977Z,101396.09
2023-05-06T02:16:14.865Z,101391.41
2023-05-06T02:18:42.474Z,101398.44
2023-05-06T02:21:10.071Z,101395.75
2023-05-06T02:23:36.681Z,101396.41
2023-05-06T02:26:04.429Z,101400.91
2023-05-06T02:28:32.863Z,101402.59
2023-05-06T02:30:59.506Z,101406.47
2023-05-06T02:33:26.195Z,101412.66
2023-05-06T02:35:52.768Z,101640.66
2023-05-06T02:38:20.828Z,101723.28
2023-05-06T02:40:47.559Z,101727.63
2023-05-06T02:43:14.178Z,101745.81
2023-05-06T02:45:40.925Z,101766.03
2023-05-06T02:48:07.714Z,101776.19
2023-05-06T02:50:38.700Z,101787.63
2023-05-06T02:53:05.413Z,101790.50
2023-05-06T02:55:32.259Z,101804.00
2023-05-06T02:57:58.883Z,101814.69
2023-05-06T03:00:25.494Z,101820.03
2023-05-06T03:02:52.295Z,101834.41
2023-05-06T03:05:19.210Z,101838.00
2023-05-06T03:07:45.812Z,101851.69
2023-05-06T03:10:12.643Z,101844.81
2023-05-06T03:12:39.564Z,101851.28
2023-05-06T03:15:07.295Z,101862.47
2023-05-06T03:17:34.163Z,101866.97
2023-05-06T03:20:03.759Z,101871.63
2023-05-06T03:22:30.806Z,101877.47
2023-05-06T03:24:57.807Z,101886.63
2023-05-06T03:27:26.187Z,101894.94
2023-05-06T03:29:57.020Z,101900.84
2023-05-06T03:32:24.626Z,101920.56
2023-05-06T03:34:52.293Z,101929.16
2023-05-06T03:37:21.096Z,101934.81
2023-05-06T03:39:52.730Z,101946.94
2023-05-06T03:42:21.767Z,101960.91
2023-05-06T03:44:48.574Z,101963.72
2023-05-06T03:47:17.262Z,101973.03
2023-05-06T03:49:44.660Z,101975.63
2023-05-06T03:52:11.417Z,102002.53
2023-05-06T03:54:38.197Z,102019.69
2023-05-06T03:57:05.954Z,102050.47
2023-05-06T03:59:32.965Z,102066.66
2023-05-06T04:02:01.759Z,102120.50
2023-05-06T04:04:28.746Z,101697.56
2023-05-06T04:06:56.057Z,101697.34
2023-05-06T04:09:24.422Z,101693.84
2023-05-06T04:11:52.274Z,101698.88
2023-05-06T04:14:19.097Z,101696.03
2023-05-06T04:16:46.404Z,101708.34
2023-05-06T04:19:13.216Z,101716.38
2023-05-06T04:21:40.236Z,101700.66
2023-05-06T04:24:10.536Z,101714.00
2023-05-06T04:26:39.496Z,101723.94
2023-05-06T04:29:07.080Z,101719.59
2023-05-06T04:31:39.388Z,101738.19
2023-05-06T04:34:10.875Z,101751.41
2023-05-06T04:36:40.460Z,101763.03
2023-05-06T04:39:16.776Z,101777.66
2023-05-06T04:41:44.507Z,101790.84
2023-05-06T04:44:14.558Z,101789.00
2023-05-06T04:46:45.300Z,101796.03
2023-05-06T04:49:14.787Z,101789.63
2023-05-06T04:51:41.544Z,101789.81
2023-05-06T04:54:08.817Z,101793.00
2023-05-06T04:56:35.824Z,101798.66
2023-05-06T04:59:06.344Z,101810.09
2023-05-06T05:01:33.714Z,101822.34
2023-05-06T05:04:00.356Z,101829.56
2023-05-06T05:06:27.043Z,101829.56
2023-05-06T05:08:55.444Z,101829.72
2023-05-06T05:11:23.510Z,101834.41
2023-05-06T05:13:50.172Z,101841.97
2023-05-06T05:16:16.979Z,101846.31
2023-05-06T05:18:44.682Z,101845.97
2023-05-06T05:21:20.987Z,101838.94
2023-05-06T05:23:47.738Z,101844.81
2023-05-06T05:26:14.427Z,101861.91
2023-05-06T05:28:43.608Z,101869.28
2023-05-06T05:31:13.765Z,101879.03
2023-05-06T05:33:44.024Z,101881.84
2023-05-06T05:36:15.614Z,101888.41
2023-05-06T05:38:44.650Z,101901.66
2023-05-06T05:41:11.812Z,101916.41
2023-05-06T05:43:38.722Z,101906.03
2023-05-06T05:46:05.582Z,101912.09
2023-05-06T05:48:33.375Z,101919.59
2023-05-06T05:51:02.525Z,101929.00
2023-05-06T05:53:29.430Z,101921.94
2023-05-06T05:55:56.254Z,101942.59
2023-05-06T05:58:23.292Z,101938.03
2023-05-06T06:00:51.145Z,101957.84
2023-05-06T06:03:26.441Z,101970.25
2023-05-06T06:05:55.129Z,101981.31
2023-05-06T06:08:23.166Z,101993.88
2023-05-06T06:10:52.248Z,101987.38
2023-05-06T06:13:24.526Z,101995.75
2023-05-06T06:15:52.231Z,102002.13
2023-05-06T06:18:20.535Z,101994.41
2023-05-06T06:20:47.305Z,102000.59
2023-05-06T06:23:14.204Z,102010.84
2023-05-06T06:25:40.965Z,102021.38
2023-05-06T06:28:07.768Z,102030.13
2023-05-06T06:30:34.496Z,102033.47
2023-05-06T06:33:01.560Z,102046.66
2023-05-06T06:35:28.950Z,102053.06
2023-05-06T06:37:55.704Z,102059.22
2023-05-06T06:40:22.642Z,102069.84
2023-05-06T06:42:51.984Z,102071.97
2023-05-06T06:45:31.843Z,102077.03
2023-05-06T06:47:58.554Z,102077.19
2023-05-06T06:50:32.553Z,102072.50
2023-05-06T06:52:59.572Z,102064.59
2023-05-06T06:55:26.300Z,102057.75
2023-05-06T06:57:53.182Z,102056.44
2023-05-06T07:00:22.042Z,102048.25
2023-05-06T07:02:53.492Z,102062.31
2023-05-06T07:05:22.742Z,102064.63
2023-05-06T07:07:51.707Z,102080.84
2023-05-06T07:10:22.573Z,102084.13
2023-05-06T07:12:54.206Z,102086.56
2023-05-06T07:15:24.290Z,102087.56
2023-05-06T07:17:53.988Z,102085.22
2023-05-06T07:20:23.180Z,102084.66
2023-05-06T07:22:51.238Z,102089.03
2023-05-06T07:25:20.382Z,102089.03
2023-05-06T07:27:47.075Z,102096.97
2023-05-06T07:30:14.019Z,102113.19
2023-05-06T07:32:41.411Z,102130.41
2023-05-06T07:35:08.721Z,102151.34
2023-05-06T07:37:40.310Z,102141.84
2023-05-06T07:40:07.507Z,102131.28
2023-05-06T07:42:34.147Z,102114.50
2023-05-06T07:45:00.897Z,102110.34
2023-05-06T07:47:30.253Z,102104.91
2023-05-06T07:50:00.263Z,102115.19
2023-05-06T07:52:27.768Z,102133.31
2023-05-06T07:54:54.396Z,102153.88
2023-05-06T07:57:21.055Z,102148.44
2023-05-06T07:59:48.584Z,102149.66
2023-05-06T08:02:15.578Z,102123.47
2023-05-06T08:04:43.009Z,102050.66
2023-05-06T08:07:10.632Z,102022.28
2023-05-06T08:09:37.416Z,102033.91
2023-05-06T08:12:04.270Z,102038.38
2023-05-06T08:14:33.443Z,102036.94
2023-05-06T08:17:02.903Z,102066.38
2023-05-06T08:19:37.158Z,102082.69
2023-05-06T08:22:03.842Z,102043.78
2023-05-06T08:24:33.043Z,102009.31
2023-05-06T08:27:02.293Z,102004.63
2023-05-06T08:29:38.033Z,102014.09
2023-05-06T08:32:05.188Z,102010.09
2023-05-06T08:34:35.070Z,101991.13
2023-05-06T08:37:09.419Z,101977.91
2023-05-06T08:39:36.221Z,101978.41
2023-05-06T08:42:04.493Z,101990.03
2023-05-06T08:44:38.955Z,101994.13
2023-05-06T08:47:05.711Z,101993.63
2023-05-06T08:49:32.593Z,101975.91
2023-05-06T08:52:09.891Z,101972.50
2023-05-06T08:54:37.212Z,101963.00
2023-05-06T08:57:12.449Z,101950.13
2023-05-06T08:59:40.284Z,101934.34
2023-05-06T09:02:07.099Z,101933.22
2023-05-06T09:04:34.306Z,101907.72
2023-05-06T09:07:03.212Z,101897.38
2023-05-06T09:09:32.380Z,101898.16
2023-05-06T09:12:04.266Z,101880.81
2023-05-06T09:14:33.403Z,101862.22
2023-05-06T09:17:03.219Z,101851.44
2023-05-06T09:19:38.931Z,101858.34
2023-05-06T09:22:12.315Z,101830.84
2023-05-06T09:24:39.118Z,101803.75
2023-05-06T09:27:06.230Z,101791.59
2023-05-06T09:29:33.820Z,101745.81
2023-05-06T09:32:05.940Z,101717.56
2023-05-06T09:34:33.503Z,101691.75
2023-05-06T09:37:03.488Z,101677.56
2023-05-06T09:39:32.830Z,101647.84
2023-05-06T09:42:03.147Z,101604.63
2023-05-06T09:44:32.704Z,101594.81
2023-05-06T09:47:07.340Z,101583.72
2023-05-06T09:49:34.052Z,101579.28
2023-05-06T09:52:03.563Z,101529.88
2023-05-06T09:54:30.559Z,101510.69
2023-05-06T09:57:02.335Z,101482.13
2023-05-06T09:59:38.442Z,101433.94
2023-05-06T10:02:05.916Z,101391.16
2023-05-06T10:04:36.144Z,101369.69
2023-05-06T10:07:04.133Z,101383.78
2023-05-06T10:09:33.576Z,101373.41
2023-05-06T10:12:03.623Z,101340.66
2023-05-06T10:14:33.110Z,101316.44
2023-05-06T10:17:08.483Z,101327.28
2023-05-06T10:19:35.641Z,101325.59
2023-05-06T10:22:20.206Z,101285.56
2023-05-06T10:24:53.307Z,101251.56
2023-05-06T10:27:23.616Z,101232.63
2023-05-06T10:29:54.219Z,101219.56
2023-05-06T10:32:22.286Z,101199.53
2023-05-06T10:34:54.273Z,101204.50
2023-05-06T10:37:25.885Z,101188.72
2023-05-06T10:39:54.188Z,101163.00
2023-05-06T10:42:20.978Z,101133.22
2023-05-06T10:45:00.838Z,101135.72
2023-05-06T10:47:27.721Z,101123.31
2023-05-06T10:50:21.298Z,101075.28
2023-05-06T10:52:50.494Z,101078.75
2023-05-06T10:55:49.462Z,101082.19
2023-05-06T10:58:16.692Z,101081.69
2023-05-06T11:00:53.724Z,101059.34
2023-05-06T11:03:24.003Z,101064.53
2023-05-06T11:05:52.441Z,101053.66
2023-05-06T11:08:26.460Z,101048.22
2023-05-06T11:10:54.196Z,101047.88
2023-05-06T11:13:36.368Z,101052.72
2023-05-06T11:16:47.972Z,101053.44
2023-05-06T11:19:32.073Z,101063.81
2023-05-06T11:22:07.214Z,101031.50
2023-05-06T11:24:42.604Z,100990.19
2023-05-06T11:27:16.220Z,100952.31
2023-05-06T11:29:43.341Z,100935.31
2023-05-06T11:32:26.209Z,100949.56
2023-05-06T11:34:56.005Z,100972.78
2023-05-06T11:37:30.058Z,100962.41
2023-05-06T11:39:56.807Z,100965.72
2023-05-06T11:42:28.226Z,100963.09
2023-05-06T11:44:59.343Z,100967.34
2023-05-06T11:47:25.979Z,100959.38
2023-05-06T11:49:54.768Z,100960.47
2023-05-06T11:52:21.650Z,100968.97
2023-05-06T11:54:51.450Z,100998.88
2023-05-06T11:57:20.067Z,101021.13
2023-05-06T11:59:46.805Z,100994.31
2023-05-06T12:02:14.284Z,100972.38
2023-05-06T12:04:49.943Z,100933.78
2023-05-06T12:07:17.170Z,100927.63
2023-05-06T12:09:48.989Z,100901.03
2023-05-06T12:12:18.747Z,100869.09
2023-05-06T12:14:45.887Z,100849.44
2023-05-06T12:17:12.909Z,100852.41
2023-05-06T12:19:39.609Z,100848.03
2023-05-06T12:22:22.750Z,100825.44
2023-05-06T12:24:49.554Z,100812.41
2023-05-06T12:27:32.627Z,100831.72
2023-05-06T12:29:59.351Z,100823.66
2023-05-06T12:32:26.128Z,100831.34
2023-05-06T12:34:56.515Z,100822.94
2023-05-06T12:37:30.157Z,100789.22
2023-05-06T12:39:59.121Z,100794.47
2023-05-06T12:42:26.632Z,100762.38
2023-05-06T12:44:54.555Z,100759.81
2023-05-06T12:47:23.769Z,100753.22
2023-05-06T12:49:58.201Z,100768.25
2023-05-06T12:52:27.678Z,100762.56
2023-05-06T12:54:54.656Z,100737.13
2023-05-06T12:57:29.069Z,100736.69
2023-05-06T12:59:56.443Z,100720.22
2023-05-06T13:02:23.249Z,100706.06
2023-05-06T13:04:50.036Z,100685.09
2023-05-06T13:07:16.766Z,100687.50
2023-05-06T13:09:46.226Z,100709.69
2023-05-06T13:12:13.179Z,100664.53
2023-05-06T13:14:40.435Z,100650.56
2023-05-06T13:17:07.799Z,100644.25
2023-05-06T13:19:34.726Z,100584.50
2023-05-06T13:22:04.409Z,100525.38
2023-05-06T13:24:32.375Z,100443.22
2023-05-06T13:27:06.600Z,100482.41
2023-05-06T13:29:35.862Z,100527.84
2023-05-06T13:32:08.413Z,100633.78
2023-05-06T13:34:35.780Z,100654.47
2023-05-06T13:37:05.970Z,100665.13
2023-05-06T13:39:32.688Z,100660.56
2023-05-06T13:42:08.433Z,100646.31
2023-05-06T13:44:35.902Z,100421.41
2023-05-06T13:47:04.822Z,100311.59
2023-05-06T13:49:34.444Z,100185.97
2023-05-06T13:52:10.204Z,100136.28
2023-05-06T13:54:36.943Z,100118.63
2023-05-06T13:57:03.699Z,100104.78
2023-05-06T13:59:39.017Z,100094.09
2023-05-06T14:02:09.387Z,100094.75
2023-05-06T14:04:36.674Z,100090.28
2023-05-06T14:07:12.555Z,100077.81
2023-05-06T14:09:39.293Z,100075.09
2023-05-06T14:12:06.130Z,100070.09
2023-05-06T14:14:41.864Z,100067.75
2023-05-06T14:17:09.873Z,100059.63
2023-05-06T14:19:36.566Z,100057.31
2023-05-06T14:22:03.342Z,100055.63
2023-05-06T14:24:29.985Z,100049.84
2023-05-06T14:26:56.705Z,100052.91
2023-05-06T14:29:23.462Z,100047.44
2023-05-06T14:31:51.015Z,100048.13
2023-05-06T14:34:18.096Z,100046.94
2023-05-06T14:36:45.011Z,100046.94
2023-05-06T14:39:11.895Z,100036.72
2023-05-06T14:41:41.030Z,100044.78
2023-05-06T14:44:07.829Z,100040.13
2023-05-06T14:46:35.012Z,100034.91
2023-05-06T14:49:01.787Z,100034.47
2023-05-06T14:51:28.764Z,100032.81
2023-05-06T14:53:57.636Z,100033.09
2023-05-06T14:56:24.463Z,100020.34
2023-05-06T14:58:51.514Z,100026.31
2023-05-06T15:01:18.415Z,100018.88
2023-05-06T15:03:45.338Z,100022.06
2023-05-06T15:06:14.578Z,100013.16
2023-05-06T15:08:42.798Z,100021.88
2023-05-06T15:11:11.538Z,100012.13
2023-05-06T15:13:38.505Z,100014.75
2023-05-06T15:16:05.734Z,100009.38
2023-05-06T15:18:32.595Z,100009.81
2023-05-06T15:21:01.424Z,100010.09
2023-05-06T15:23:28.837Z,100003.88
2023-05-06T15:25:56.954Z,99998.66
2023-05-06T15:28:25.990Z,99995.97
2023-05-06T15:30:52.726Z,99992.78
2023-05-06T15:33:19.404Z,99989.03
2023-05-06T15:35:46.288Z,99990.88
2023-05-06T15:38:13.032Z,99977.06
2023-05-06T15:40:42.749Z,99975.78
2023-05-06T15:43:09.808Z,99969.38
2023-05-06T15:45:37.602Z,99971.03
2023-05-06T15:48:04.438Z,99972.03
2023-05-06T15:50:33.734Z,99974.78
2023-05-06T15:53:01.616Z,99970.16
2023-05-06T15:55:28.927Z,99974.34
2023-05-06T15:57:57.905Z,99975.00
2023-05-06T16:00:26.094Z,99990.44
2023-05-06T16:02:53.191Z,99993.09
2023-05-06T16:05:22.832Z,99993.34
2023-05-06T16:07:49.731Z,99998.69
2023-05-06T16:10:16.399Z,100007.94
2023-05-06T16:12:43.545Z,100001.97
2023-05-06T16:15:10.743Z,100004.19
2023-05-06T16:17:38.359Z,100009.84
2023-05-06T16:20:05.882Z,100008.97
2023-05-06T16:22:32.574Z,100006.00
2023-05-06T16:24:59.407Z,100013.03
2023-05-06T16:27:28.176Z,100006.81
2023-05-06T16:29:55.572Z,99995.53
2023-05-06T16:32:22.898Z,99995.44
2023-05-06T16:34:49.566Z,100000.28
2023-05-06T16:37:16.298Z,99996.66
2023-05-06T16:39:42.997Z,99995.28
2023-05-06T16:42:09.688Z,99989.56
2023-05-06T16:44:36.390Z,99998.19
2023-05-06T16:47:03.105Z,99997.44
2023-05-06T16:49:31.270Z,100005.38
2023-05-06T16:52:00.550Z,100002.44
2023-05-06T16:54:27.392Z,100012.34
2023-05-06T16:56:54.269Z,100022.44
2023-05-06T16:59:22.450Z,100019.47
2023-05-06T17:01:50.186Z,100020.09
2023-05-06T17:04:16.966Z,100018.97
2023-05-06T17:06:43.650Z,100010.44
2023-05-06T17:09:10.756Z,100011.75
2023-05-06T17:11:37.559Z,100011.34
2023-05-06T17:14:04.304Z,100017.31
2023-05-06T17:16:31.088Z,100015.41
2023-05-06T17:18:57.823Z,100016.88
2023-05-06T17:21:25.009Z,100015.91
2023-05-06T17:23:57.100Z,100025.53
2023-05-06T17:26:23.880Z,100023.16
2023-05-06T17:28:51.132Z,100022.53
2023-05-06T17:31:18.724Z,100017.50
2023-05-06T17:33:45.882Z,100016.94
2023-05-06T17:36:16.890Z,100020.19
2023-05-06T17:38:46.315Z,100022.38
2023-05-06T17:41:13.384Z,100023.03
2023-05-06T17:43:47.570Z,100029.94
2023-05-06T17:46:14.401Z,100032.69
2023-05-06T17:48:41.308Z,100042.47
2023-05-06T17:51:08.344Z,100047.38
2023-05-06T17:53:35.550Z,100045.13
2023-05-06T17:56:02.531Z,100052.22
2023-05-06T17:58:29.413Z,100052.03
2023-05-06T18:00:57.612Z,100050.50
2023-05-06T18:03:24.672Z,100053.34
2023-05-06T18:05:51.764Z,100054.22
2023-05-06T18:08:23.344Z,100059.41
2023-05-06T18:10:50.703Z,100059.75
2023-05-06T18:13:17.866Z,100066.38
2023-05-06T18:15:45.137Z,100076.09
2023-05-06T18:18:12.501Z,100077.63
2023-05-06T18:20:40.772Z,100078.94
2023-05-06T18:23:10.908Z,100079.63
2023-05-06T18:25:40.550Z,100080.69
2023-05-06T18:28:09.952Z,100086.91
2023-05-06T18:30:39.199Z,100090.78
2023-05-06T18:33:06.549Z,100088.09
2023-05-06T18:35:44.014Z,100088.53
2023-05-06T18:38:11.685Z,100094.94
2023-05-06T18:40:39.174Z,100096.84
2023-05-06T18:43:12.500Z,100099.06
2023-05-06T18:45:39.296Z,100100.72
2023-05-06T18:48:06.157Z,100103.94
2023-05-06T18:50:32.876Z,100115.28
2023-05-06T18:52:59.793Z,100116.09
2023-05-06T18:55:26.771Z,100126.53
2023-05-06T18:57:57.094Z,100140.44
2023-05-06T19:00:24.326Z,100140.78
2023-05-06T19:02:51.140Z,100143.66
2023-05-06T19:05:19.228Z,100141.03
2023-05-06T19:07:46.200Z,100151.25
2023-05-06T19:10:14.144Z,100155.34
2023-05-06T19:12:41.824Z,100161.41
2023-05-06T19:15:09.499Z,100168.91
2023-05-06T19:17:36.362Z,100164.34
2023-05-06T19:20:03.400Z,100168.97
2023-05-06T19:22:30.201Z,100165.38
2023-05-06T19:24:56.914Z,100170.38
2023-05-06T19:27:24.787Z,100180.19
2023-05-06T19:29:51.564Z,100174.66
2023-05-06T19:32:18.551Z,100194.97
2023-05-06T19:34:45.347Z,100188.44
2023-05-06T19:37:12.125Z,100193.31
2023-05-06T19:39:38.786Z,100193.31
2023-05-06T19:42:06.020Z,100201.09
2023-05-06T19:44:32.758Z,100199.47
2023-05-06T19:46:59.554Z,100202.28
2023-05-06T19:49:26.494Z,100205.88
2023-05-06T19:51:55.469Z,100205.06
2023-05-06T19:54:22.485Z,100206.97
2023-05-06T19:56:49.248Z,100206.22
2023-05-06T19:59:17.587Z,100207.47
2023-05-06T20:01:44.589Z,100208.75
2023-05-06T20:04:12.277Z,100216.38
2023-05-06T20:06:38.951Z,100221.19
2023-05-06T20:09:05.790Z,100219.59
2023-05-06T20:11:32.459Z,100226.44
2023-05-06T20:14:02.684Z,100222.78
2023-05-06T20:16:32.008Z,100224.47
2023-05-06T20:18:59.207Z,100222.06
2023-05-06T20:21:26.238Z,100222.09
2023-05-06T20:23:55.958Z,100223.16
2023-05-06T20:26:25.136Z,100226.72
2023-05-06T20:28:53.345Z,100224.06
2023-05-06T20:31:20.243Z,100217.50
2023-05-06T20:33:47.028Z,100221.41
2023-05-06T20:36:13.682Z,100230.28
2023-05-06T20:38:43.708Z,100227.41
2023-05-06T20:41:10.390Z,100232.59
2023-05-06T20:43:37.629Z,100242.47
2023-05-06T20:46:05.718Z,100242.69
2023-05-06T20:48:32.526Z,100252.56
2023-05-06T20:50:59.370Z,100250.91
2023-05-06T20:53:27.530Z,100280.19
2023-05-06T20:55:54.396Z,100291.72
2023-05-06T20:58:21.314Z,100308.41
2023-05-06T21:00:48.243Z,100309.44
2023-05-06T21:03:15.251Z,100316.44
2023-05-06T21:05:44.761Z,100313.13
2023-05-06T21:08:12.536Z,100322.00
2023-05-06T21:10:39.811Z,100333.13
2023-05-06T21:13:08.276Z,100355.59
2023-05-06T21:15:38.223Z,100378.22
2023-05-06T21:18:05.367Z,100387.28
2023-05-06T21:20:32.252Z,100397.22
2023-05-06T21:22:59.180Z,100404.84
2023-05-06T21:25:26.277Z,100416.56
2023-05-06T21:28:05.415Z,100438.41
2023-05-06T21:30:38.221Z,100460.47
2023-05-06T21:33:08.183Z,100473.34
2023-05-06T21:35:37.805Z,100505.91
2023-05-06T21:38:08.013Z,100521.81
2023-05-06T21:40:34.760Z,100524.09
2023-05-06T21:43:03.089Z,100541.84
2023-05-06T21:45:30.073Z,100556.25
2023-05-06T21:47:56.776Z,100559.13
2023-05-06T21:50:23.812Z,100563.88
2023-05-06T21:52:53.225Z,100562.00
2023-05-06T21:55:24.431Z,100576.03
2023-05-06T21:57:51.066Z,100569.66
2023-05-06T22:00:20.267Z,100563.66
2023-05-06T22:02:53.202Z,100566.34
2023-05-06T22:05:20.450Z,100572.88
2023-05-06T22:07:47.707Z,100574.94
2023-05-06T22:10:14.581Z,100577.41
2023-05-06T22:12:42.030Z,100584.63
2023-05-06T22:15:09.507Z,100578.44
2023-05-06T22:17:38.122Z,100581.31
2023-05-06T22:20:06.059Z,100584.63
2023-05-06T22:22:33.116Z,100593.25
2023-05-06T22:25:00.455Z,100629.75
2023-05-06T22:27:27.174Z,100632.19
2023-05-06T22:29:53.925Z,100647.06
2023-05-06T22:32:21.976Z,100631.16
2023-05-06T22:34:52.240Z,100636.91
2023-05-06T22:37:19.881Z,100624.69
2023-05-06T22:39:51.488Z,100637.50
2023-05-06T22:42:19.168Z,100640.19
2023-05-06T22:44:45.962Z,100642.66
2023-05-06T22:47:12.711Z,100641.38
2023-05-06T22:49:39.429Z,100629.81
2023-05-06T22:52:06.304Z,100628.28
2023-05-06T22:54:33.099Z,100633.25
2023-05-06T22:57:02.131Z,100645.81
2023-05-06T22:59:28.790Z,100643.34
2023-05-06T23:01:58.214Z,100651.81
2023-05-06T23:04:25.924Z,100653.03
2023-05-06T23:06:53.362Z,100660.69
2023-05-06T23:09:20.168Z,100668.97
2023-05-06T23:11:47.201Z,100659.59
2023-05-06T23:14:13.942Z,100655.25
2023-05-06T23:16:40.836Z,100658.97
2023-05-06T23:19:08.565Z,100655.22
2023-05-06T23:21:36.100Z,100657.69
2023-05-06T23:24:03.627Z,100661.00
2023-05-06T23:26:31.161Z,100662.66
2023-05-06T23:28:58.002Z,100663.81
2023-05-06T23:31:25.765Z,100671.84
2023-05-06T23:33:52.815Z,100682.78
2023-05-06T23:36:19.540Z,100680.53
2023-05-06T23:38:48.481Z,100673.34
2023-05-06T23:41:15.110Z,100681.53
2023-05-06T23:43:41.743Z,100717.19
2023-05-06T23:46:15.175Z,100849.16
2023-05-06T23:48:44.221Z,100852.59
2023-05-06T23:51:13.098Z,100856.09
2023-05-06T23:53:42.558Z,100853.88
2023-05-06T23:56:14.329Z,100855.06
2023-05-06T23:58:43.470Z,100873.00
